sensor_id;sensor_type;location;lat;lon;timestamp;temperature;humidity
30534;DHT22;17318;52.390;9.754;2023-04-07T00:02:16;8.80;62.00
30534;DHT22;17318;52.390;9.754;2023-04-07T00:04:42;8.60;62.40
30534;DHT22;17318;52.390;9.754;2023-04-07T00:07:08;8.60;62.70
30534;DHT22;17318;52.390;9.754;2023-04-07T00:09:33;8.60;63.00
30534;DHT22;17318;52.390;9.754;2023-04-07T00:11:59;8.60;63.00
30534;DHT22;17318;52.390;9.754;2023-04-07T00:14:28;8.50;64.10
30534;DHT22;17318;52.390;9.754;2023-04-07T00:16:54;8.50;63.50
30534;DHT22;17318;52.390;9.754;2023-04-07T00:19:19;8.50;63.80
30534;DHT22;17318;52.390;9.754;2023-04-07T00:21:45;8.40;64.00
30534;DHT22;17318;52.390;9.754;2023-04-07T00:24:10;8.40;63.80
30534;DHT22;17318;52.390;9.754;2023-04-07T00:26:36;8.40;63.60
30534;DHT22;17318;52.390;9.754;2023-04-07T00:29:02;8.30;63.70
30534;DHT22;17318;52.390;9.754;2023-04-07T00:31:28;8.30;64.10
30534;DHT22;17318;52.390;9.754;2023-04-07T00:33:53;8.20;64.30
30534;DHT22;17318;52.390;9.754;2023-04-07T00:36:20;8.20;63.80
30534;DHT22;17318;52.390;9.754;2023-04-07T00:38:46;8.10;64.30
30534;DHT22;17318;52.390;9.754;2023-04-07T00:41:11;8.10;65.00
30534;DHT22;17318;52.390;9.754;2023-04-07T00:43:37;8.00;65.20
30534;DHT22;17318;52.390;9.754;2023-04-07T00:46:03;8.10;65.00
30534;DHT22;17318;52.390;9.754;2023-04-07T00:48:28;8.10;65.30
30534;DHT22;17318;52.390;9.754;2023-04-07T00:50:55;8.00;66.00
30534;DHT22;17318;52.390;9.754;2023-04-07T00:53:21;7.90;67.00
30534;DHT22;17318;52.390;9.754;2023-04-07T00:55:46;7.80;67.70
30534;DHT22;17318;52.390;9.754;2023-04-07T00:58:12;7.80;66.70
30534;DHT22;17318;52.390;9.754;2023-04-07T01:00:59;7.80;65.70
30534;DHT22;17318;52.390;9.754;2023-04-07T01:03:59;7.80;65.20
30534;DHT22;17318;52.390;9.754;2023-04-07T01:06:30;7.80;65.70
30534;DHT22;17318;52.390;9.754;2023-04-07T01:09:04;7.80;65.80
30534;DHT22;17318;52.390;9.754;2023-04-07T01:14:40;7.70;65.50
30534;DHT22;17318;52.390;9.754;2023-04-07T01:17:09;7.80;65.30
30534;DHT22;17318;52.390;9.754;2023-04-07T01:22:30;7.70;65.70
30534;DHT22;17318;52.390;9.754;2023-04-07T01:27:55;7.70;66.30
30534;DHT22;17318;52.390;9.754;2023-04-07T01:30:24;7.70;65.70
30534;DHT22;17318;52.390;9.754;2023-04-07T01:32:54;7.60;66.20
30534;DHT22;17318;52.390;9.754;2023-04-07T01:35:21;7.60;65.60
30534;DHT22;17318;52.390;9.754;2023-04-07T01:37:48;7.70;66.00
30534;DHT22;17318;52.390;9.754;2023-04-07T01:40:16;7.50;66.20
30534;DHT22;17318;52.390;9.754;2023-04-07T01:42:43;7.60;65.90
30534;DHT22;17318;52.390;9.754;2023-04-07T01:45:09;7.50;66.50
30534;DHT22;17318;52.390;9.754;2023-04-07T01:47:36;7.50;67.40
30534;DHT22;17318;52.390;9.754;2023-04-07T01:50:02;7.40;68.20
30534;DHT22;17318;52.390;9.754;2023-04-07T01:52:31;7.40;68.40
30534;DHT22;17318;52.390;9.754;2023-04-07T01:54:57;7.30;67.70
30534;DHT22;17318;52.390;9.754;2023-04-07T01:57:23;7.40;68.00
30534;DHT22;17318;52.390;9.754;2023-04-07T01:59:49;7.30;67.60
30534;DHT22;17318;52.390;9.754;2023-04-07T02:02:14;7.30;67.30
30534;DHT22;17318;52.390;9.754;2023-04-07T02:04:57;7.40;67.50
30534;DHT22;17318;52.390;9.754;2023-04-07T02:07:52;7.30;67.30
30534;DHT22;17318;52.390;9.754;2023-04-07T02:10:22;7.20;67.60
30534;DHT22;17318;52.390;9.754;2023-04-07T02:12:48;7.20;67.90
30534;DHT22;17318;52.390;9.754;2023-04-07T02:15:15;7.20;68.00
30534;DHT22;17318;52.390;9.754;2023-04-07T02:17:45;7.10;69.10
30534;DHT22;17318;52.390;9.754;2023-04-07T02:20:13;7.00;70.50
30534;DHT22;17318;52.390;9.754;2023-04-07T02:22:39;7.10;69.90
30534;DHT22;17318;52.390;9.754;2023-04-07T02:25:21;7.10;69.90
30534;DHT22;17318;52.390;9.754;2023-04-07T02:27:47;7.00;69.70
30534;DHT22;17318;52.390;9.754;2023-04-07T02:30:13;7.00;69.70
30534;DHT22;17318;52.390;9.754;2023-04-07T02:32:39;7.00;69.20
30534;DHT22;17318;52.390;9.754;2023-04-07T02:35:06;7.10;69.30
30534;DHT22;17318;52.390;9.754;2023-04-07T02:37:31;7.00;70.00
30534;DHT22;17318;52.390;9.754;2023-04-07T02:39:57;6.90;69.90
30534;DHT22;17318;52.390;9.754;2023-04-07T02:42:23;7.00;69.80
30534;DHT22;17318;52.390;9.754;2023-04-07T02:44:49;6.90;69.80
30534;DHT22;17318;52.390;9.754;2023-04-07T02:47:15;6.90;69.80
30534;DHT22;17318;52.390;9.754;2023-04-07T02:49:41;6.90;70.10
30534;DHT22;17318;52.390;9.754;2023-04-07T02:52:06;6.90;70.70
30534;DHT22;17318;52.390;9.754;2023-04-07T02:54:32;6.80;71.00
30534;DHT22;17318;52.390;9.754;2023-04-07T02:56:58;6.80;71.00
30534;DHT22;17318;52.390;9.754;2023-04-07T02:59:24;6.90;70.50
30534;DHT22;17318;52.390;9.754;2023-04-07T03:01:49;6.90;70.30
30534;DHT22;17318;52.390;9.754;2023-04-07T03:04:15;6.80;71.00
30534;DHT22;17318;52.390;9.754;2023-04-07T03:06:41;6.70;72.00
30534;DHT22;17318;52.390;9.754;2023-04-07T03:09:06;6.60;72.50
30534;DHT22;17318;52.390;9.754;2023-04-07T03:11:35;6.70;72.10
30534;DHT22;17318;52.390;9.754;2023-04-07T03:14:01;6.80;71.30
30534;DHT22;17318;52.390;9.754;2023-04-07T03:16:26;6.80;72.00
30534;DHT22;17318;52.390;9.754;2023-04-07T03:18:52;6.60;73.10
30534;DHT22;17318;52.390;9.754;2023-04-07T03:21:17;6.60;73.40
30534;DHT22;17318;52.390;9.754;2023-04-07T03:23:43;6.60;73.10
30534;DHT22;17318;52.390;9.754;2023-04-07T03:26:09;6.70;72.50
30534;DHT22;17318;52.390;9.754;2023-04-07T03:28:34;6.70;71.90
30534;DHT22;17318;52.390;9.754;2023-04-07T03:31:00;6.50;73.10
30534;DHT22;17318;52.390;9.754;2023-04-07T03:33:26;6.40;73.80
30534;DHT22;17318;52.390;9.754;2023-04-07T03:35:52;6.40;74.10
30534;DHT22;17318;52.390;9.754;2023-04-07T03:38:18;6.40;74.40
30534;DHT22;17318;52.390;9.754;2023-04-07T03:40:43;6.40;74.90
30534;DHT22;17318;52.390;9.754;2023-04-07T03:43:09;6.40;75.00
30534;DHT22;17318;52.390;9.754;2023-04-07T03:45:38;6.40;74.90
30534;DHT22;17318;52.390;9.754;2023-04-07T03:48:04;6.40;74.80
30534;DHT22;17318;52.390;9.754;2023-04-07T03:50:30;6.40;74.10
30534;DHT22;17318;52.390;9.754;2023-04-07T03:52:56;6.40;74.00
30534;DHT22;17318;52.390;9.754;2023-04-07T03:55:21;6.40;74.40
30534;DHT22;17318;52.390;9.754;2023-04-07T03:57:47;6.40;75.20
30534;DHT22;17318;52.390;9.754;2023-04-07T04:00:13;6.30;75.30
30534;DHT22;17318;52.390;9.754;2023-04-07T04:02:38;6.30;76.20
30534;DHT22;17318;52.390;9.754;2023-04-07T04:05:04;6.20;77.50
30534;DHT22;17318;52.390;9.754;2023-04-07T04:07:30;6.20;77.40
30534;DHT22;17318;52.390;9.754;2023-04-07T04:09:57;6.10;78.30
30534;DHT22;17318;52.390;9.754;2023-04-07T04:12:23;6.20;78.10
30534;DHT22;17318;52.390;9.754;2023-04-07T04:14:49;6.10;78.20
30534;DHT22;17318;52.390;9.754;2023-04-07T04:17:15;6.20;77.90
30534;DHT22;17318;52.390;9.754;2023-04-07T04:19:40;6.20;78.00
30534;DHT22;17318;52.390;9.754;2023-04-07T04:22:06;6.20;78.20
30534;DHT22;17318;52.390;9.754;2023-04-07T04:24:32;6.10;78.10
30534;DHT22;17318;52.390;9.754;2023-04-07T04:26:57;6.20;77.90
30534;DHT22;17318;52.390;9.754;2023-04-07T04:29:23;6.20;77.50
30534;DHT22;17318;52.390;9.754;2023-04-07T04:31:49;6.20;77.70
30534;DHT22;17318;52.390;9.754;2023-04-07T04:34:14;6.20;78.00
30534;DHT22;17318;52.390;9.754;2023-04-07T04:36:40;6.20;77.40
30534;DHT22;17318;52.390;9.754;2023-04-07T04:39:06;6.20;77.40
30534;DHT22;17318;52.390;9.754;2023-04-07T04:41:31;6.20;76.90
30534;DHT22;17318;52.390;9.754;2023-04-07T04:43:57;6.20;77.60
30534;DHT22;17318;52.390;9.754;2023-04-07T04:46:23;6.20;78.00
30534;DHT22;17318;52.390;9.754;2023-04-07T04:48:49;6.20;77.90
30534;DHT22;17318;52.390;9.754;2023-04-07T04:51:16;6.20;78.00
30534;DHT22;17318;52.390;9.754;2023-04-07T04:53:41;6.20;78.00
30534;DHT22;17318;52.390;9.754;2023-04-07T04:56:07;6.10;77.30
30534;DHT22;17318;52.390;9.754;2023-04-07T04:58:34;6.20;77.50
30534;DHT22;17318;52.390;9.754;2023-04-07T05:00:59;6.20;77.90
30534;DHT22;17318;52.390;9.754;2023-04-07T05:03:27;6.20;77.90
30534;DHT22;17318;52.390;9.754;2023-04-07T05:05:52;6.20;78.50
30534;DHT22;17318;52.390;9.754;2023-04-07T05:08:18;6.20;77.60
30534;DHT22;17318;52.390;9.754;2023-04-07T05:10:45;6.40;76.10
30534;DHT22;17318;52.390;9.754;2023-04-07T05:13:11;6.50;75.10
30534;DHT22;17318;52.390;9.754;2023-04-07T05:15:37;6.60;74.60
30534;DHT22;17318;52.390;9.754;2023-04-07T05:18:02;6.60;74.30
30534;DHT22;17318;52.390;9.754;2023-04-07T05:20:28;6.60;74.70
30534;DHT22;17318;52.390;9.754;2023-04-07T05:22:54;6.60;74.10
30534;DHT22;17318;52.390;9.754;2023-04-07T05:25:19;6.60;74.10
30534;DHT22;17318;52.390;9.754;2023-04-07T05:27:45;6.70;74.40
30534;DHT22;17318;52.390;9.754;2023-04-07T05:30:11;6.80;74.10
30534;DHT22;17318;52.390;9.754;2023-04-07T05:32:37;6.80;74.30
30534;DHT22;17318;52.390;9.754;2023-04-07T05:35:03;6.70;74.30
30534;DHT22;17318;52.390;9.754;2023-04-07T05:37:28;6.80;74.50
30534;DHT22;17318;52.390;9.754;2023-04-07T05:39:54;6.80;74.20
30534;DHT22;17318;52.390;9.754;2023-04-07T05:42:20;6.80;74.20
30534;DHT22;17318;52.390;9.754;2023-04-07T05:44:46;6.80;74.20
30534;DHT22;17318;52.390;9.754;2023-04-07T05:47:11;6.80;74.80
30534;DHT22;17318;52.390;9.754;2023-04-07T05:49:37;6.80;74.80
30534;DHT22;17318;52.390;9.754;2023-04-07T05:52:10;6.80;74.30
30534;DHT22;17318;52.390;9.754;2023-04-07T05:54:36;6.80;75.10
30534;DHT22;17318;52.390;9.754;2023-04-07T05:57:02;6.90;73.80
30534;DHT22;17318;52.390;9.754;2023-04-07T05:59:28;7.00;73.20
30534;DHT22;17318;52.390;9.754;2023-04-07T06:01:53;7.00;72.80
30534;DHT22;17318;52.390;9.754;2023-04-07T06:04:19;7.10;72.70
30534;DHT22;17318;52.390;9.754;2023-04-07T06:06:45;7.20;73.00
30534;DHT22;17318;52.390;9.754;2023-04-07T06:09:11;7.10;72.60
30534;DHT22;17318;52.390;9.754;2023-04-07T06:11:36;7.20;72.50
30534;DHT22;17318;52.390;9.754;2023-04-07T06:14:02;7.20;72.30
30534;DHT22;17318;52.390;9.754;2023-04-07T06:16:28;7.20;72.20
30534;DHT22;17318;52.390;9.754;2023-04-07T06:18:53;7.20;72.00
30534;DHT22;17318;52.390;9.754;2023-04-07T06:21:19;7.20;72.10
30534;DHT22;17318;52.390;9.754;2023-04-07T06:23:45;7.20;72.10
30534;DHT22;17318;52.390;9.754;2023-04-07T06:26:11;7.40;72.40
30534;DHT22;17318;52.390;9.754;2023-04-07T06:28:37;7.30;72.00
30534;DHT22;17318;52.390;9.754;2023-04-07T06:31:02;7.30;71.80
30534;DHT22;17318;52.390;9.754;2023-04-07T06:33:28;7.40;71.90
30534;DHT22;17318;52.390;9.754;2023-04-07T06:35:55;7.50;71.50
30534;DHT22;17318;52.390;9.754;2023-04-07T06:38:21;7.60;71.40
30534;DHT22;17318;52.390;9.754;2023-04-07T06:40:47;7.50;71.40
30534;DHT22;17318;52.390;9.754;2023-04-07T06:43:12;7.60;71.10
30534;DHT22;17318;52.390;9.754;2023-04-07T06:45:39;7.70;70.70
30534;DHT22;17318;52.390;9.754;2023-04-07T06:48:06;7.80;71.00
30534;DHT22;17318;52.390;9.754;2023-04-07T06:50:31;7.80;71.20
30534;DHT22;17318;52.390;9.754;2023-04-07T06:52:57;7.80;70.60
30534;DHT22;17318;52.390;9.754;2023-04-07T06:55:23;7.90;70.60
30534;DHT22;17318;52.390;9.754;2023-04-07T06:57:48;7.90;70.60
30534;DHT22;17318;52.390;9.754;2023-04-07T07:00:16;7.90;70.40
30534;DHT22;17318;52.390;9.754;2023-04-07T07:02:43;8.10;70.30
30534;DHT22;17318;52.390;9.754;2023-04-07T07:05:09;8.20;70.30
30534;DHT22;17318;52.390;9.754;2023-04-07T07:07:36;8.20;70.00
30534;DHT22;17318;52.390;9.754;2023-04-07T07:10:02;8.30;69.60
30534;DHT22;17318;52.390;9.754;2023-04-07T07:12:28;8.40;69.60
30534;DHT22;17318;52.390;9.754;2023-04-07T07:14:53;8.50;69.40
30534;DHT22;17318;52.390;9.754;2023-04-07T07:17:19;8.70;69.20
30534;DHT22;17318;52.390;9.754;2023-04-07T07:19:45;8.80;68.60
30534;DHT22;17318;52.390;9.754;2023-04-07T07:22:10;8.90;68.70
30534;DHT22;17318;52.390;9.754;2023-04-07T07:24:36;9.00;68.20
30534;DHT22;17318;52.390;9.754;2023-04-07T07:27:01;9.10;68.40
30534;DHT22;17318;52.390;9.754;2023-04-07T07:29:28;9.20;68.00
30534;DHT22;17318;52.390;9.754;2023-04-07T07:31:53;9.30;67.10
30534;DHT22;17318;52.390;9.754;2023-04-07T07:34:19;9.50;67.10
30534;DHT22;17318;52.390;9.754;2023-04-07T07:36:44;9.50;66.20
30534;DHT22;17318;52.390;9.754;2023-04-07T07:39:10;9.60;66.00
30534;DHT22;17318;52.390;9.754;2023-04-07T07:41:36;9.70;65.90
30534;DHT22;17318;52.390;9.754;2023-04-07T07:44:02;9.70;65.70
30534;DHT22;17318;52.390;9.754;2023-04-07T07:46:27;9.60;65.40
30534;DHT22;17318;52.390;9.754;2023-04-07T07:48:53;9.70;65.40
30534;DHT22;17318;52.390;9.754;2023-04-07T07:51:19;9.90;65.20
30534;DHT22;17318;52.390;9.754;2023-04-07T07:53:44;9.90;64.90
30534;DHT22;17318;52.390;9.754;2023-04-07T07:56:10;10.10;64.10
30534;DHT22;17318;52.390;9.754;2023-04-07T07:58:36;10.20;63.50
30534;DHT22;17318;52.390;9.754;2023-04-07T08:01:02;10.30;63.60
30534;DHT22;17318;52.390;9.754;2023-04-07T08:03:28;10.40;63.10
30534;DHT22;17318;52.390;9.754;2023-04-07T08:05:54;10.50;62.70
30534;DHT22;17318;52.390;9.754;2023-04-07T08:08:20;10.50;62.80
30534;DHT22;17318;52.390;9.754;2023-04-07T08:10:45;10.60;62.50
30534;DHT22;17318;52.390;9.754;2023-04-07T08:13:11;10.70;62.90
30534;DHT22;17318;52.390;9.754;2023-04-07T08:15:37;10.80;62.20
30534;DHT22;17318;52.390;9.754;2023-04-07T08:18:03;10.90;62.00
30534;DHT22;17318;52.390;9.754;2023-04-07T08:20:30;11.10;61.40
30534;DHT22;17318;52.390;9.754;2023-04-07T08:22:56;11.50;60.90
30534;DHT22;17318;52.390;9.754;2023-04-07T08:25:22;12.10;60.20
30534;DHT22;17318;52.390;9.754;2023-04-07T08:27:48;12.40;58.60
30534;DHT22;17318;52.390;9.754;2023-04-07T08:30:14;12.90;58.50
30534;DHT22;17318;52.390;9.754;2023-04-07T08:32:42;14.30;58.10
30534;DHT22;17318;52.390;9.754;2023-04-07T08:35:09;15.60;54.40
30534;DHT22;17318;52.390;9.754;2023-04-07T08:37:36;17.20;54.70
30534;DHT22;17318;52.390;9.754;2023-04-07T08:40:02;18.30;52.90
30534;DHT22;17318;52.390;9.754;2023-04-07T08:42:30;19.40;48.60
30534;DHT22;17318;52.390;9.754;2023-04-07T08:44:58;20.30;46.20
30534;DHT22;17318;52.390;9.754;2023-04-07T08:47:27;21.00;45.20
30534;DHT22;17318;52.390;9.754;2023-04-07T08:49:58;21.60;43.50
30534;DHT22;17318;52.390;9.754;2023-04-07T08:52:33;21.80;42.60
30534;DHT22;17318;52.390;9.754;2023-04-07T08:55:00;22.10;40.50
30534;DHT22;17318;52.390;9.754;2023-04-07T08:57:29;23.00;39.90
30534;DHT22;17318;52.390;9.754;2023-04-07T08:59:58;22.90;38.80
30534;DHT22;17318;52.390;9.754;2023-04-07T09:02:31;22.90;38.50
30534;DHT22;17318;52.390;9.754;2023-04-07T09:04:57;23.40;37.40
30534;DHT22;17318;52.390;9.754;2023-04-07T09:07:23;24.20;38.20
30534;DHT22;17318;52.390;9.754;2023-04-07T09:09:48;24.60;37.60
30534;DHT22;17318;52.390;9.754;2023-04-07T09:12:15;24.90;37.10
30534;DHT22;17318;52.390;9.754;2023-04-07T09:14:41;25.00;35.90
30534;DHT22;17318;52.390;9.754;2023-04-07T09:17:06;25.30;35.50
30534;DHT22;17318;52.390;9.754;2023-04-07T09:19:32;25.70;35.20
30534;DHT22;17318;52.390;9.754;2023-04-07T09:21:58;25.40;32.50
30534;DHT22;17318;52.390;9.754;2023-04-07T09:24:25;25.50;33.70
30534;DHT22;17318;52.390;9.754;2023-04-07T09:29:36;26.30;32.20
30534;DHT22;17318;52.390;9.754;2023-04-07T09:32:02;26.20;31.50
30534;DHT22;17318;52.390;9.754;2023-04-07T09:34:33;25.70;31.20
30534;DHT22;17318;52.390;9.754;2023-04-07T09:36:59;26.40;31.40
30534;DHT22;17318;52.390;9.754;2023-04-07T09:39:25;25.50;30.10
30534;DHT22;17318;52.390;9.754;2023-04-07T09:41:51;25.50;31.00
30534;DHT22;17318;52.390;9.754;2023-04-07T09:44:21;25.90;30.50
30534;DHT22;17318;52.390;9.754;2023-04-07T09:46:51;26.20;30.30
30534;DHT22;17318;52.390;9.754;2023-04-07T09:49:18;25.50;29.50
30534;DHT22;17318;52.390;9.754;2023-04-07T09:54:39;24.60;30.20
30534;DHT22;17318;52.390;9.754;2023-04-07T09:57:07;24.40;29.90
30534;DHT22;17318;52.390;9.754;2023-04-07T09:59:35;25.20;30.50
30534;DHT22;17318;52.390;9.754;2023-04-07T10:02:01;25.40;30.30
30534;DHT22;17318;52.390;9.754;2023-04-07T10:04:27;25.40;30.50
30534;DHT22;17318;52.390;9.754;2023-04-07T10:06:57;26.60;30.60
30534;DHT22;17318;52.390;9.754;2023-04-07T10:09:26;27.00;30.80
30534;DHT22;17318;52.390;9.754;2023-04-07T10:11:53;27.70;30.50
30534;DHT22;17318;52.390;9.754;2023-04-07T10:14:21;28.60;30.40
30534;DHT22;17318;52.390;9.754;2023-04-07T10:16:48;28.70;30.00
30534;DHT22;17318;52.390;9.754;2023-04-07T10:19:14;29.10;29.30
30534;DHT22;17318;52.390;9.754;2023-04-07T10:21:42;29.50;29.40
30534;DHT22;17318;52.390;9.754;2023-04-07T10:24:33;29.00;29.00
30534;DHT22;17318;52.390;9.754;2023-04-07T10:27:15;28.20;29.40
30534;DHT22;17318;52.390;9.754;2023-04-07T10:29:43;28.50;29.30
30534;DHT22;17318;52.390;9.754;2023-04-07T10:32:09;28.40;28.70
30534;DHT22;17318;52.390;9.754;2023-04-07T10:37:21;28.40;28.80
30534;DHT22;17318;52.390;9.754;2023-04-07T10:39:52;27.90;28.90
30534;DHT22;17318;52.390;9.754;2023-04-07T10:45:05;28.10;28.50
30534;DHT22;17318;52.390;9.754;2023-04-07T10:47:32;28.30;28.70
30534;DHT22;17318;52.390;9.754;2023-04-07T10:52:43;28.60;28.60
30534;DHT22;17318;52.390;9.754;2023-04-07T10:55:36;28.10;28.10
30534;DHT22;17318;52.390;9.754;2023-04-07T10:58:24;28.10;28.20
30534;DHT22;17318;52.390;9.754;2023-04-07T11:01:15;27.40;28.20
30534;DHT22;17318;52.390;9.754;2023-04-07T11:03:52;27.00;28.50
30534;DHT22;17318;52.390;9.754;2023-04-07T11:06:18;26.70;28.50
30534;DHT22;17318;52.390;9.754;2023-04-07T11:08:45;26.40;28.70
30534;DHT22;17318;52.390;9.754;2023-04-07T11:11:14;26.60;28.70
30534;DHT22;17318;52.390;9.754;2023-04-07T11:16:06;26.00;29.00
30534;DHT22;17318;52.390;9.754;2023-04-07T11:18:32;25.00;28.80
30534;DHT22;17318;52.390;9.754;2023-04-07T11:20:57;24.90;29.20
30534;DHT22;17318;52.390;9.754;2023-04-07T11:23:24;24.50;29.40
30534;DHT22;17318;52.390;9.754;2023-04-07T11:25:52;24.20;29.50
30534;DHT22;17318;52.390;9.754;2023-04-07T11:28:23;23.50;29.80
30534;DHT22;17318;52.390;9.754;2023-04-07T11:30:50;23.20;30.00
30534;DHT22;17318;52.390;9.754;2023-04-07T11:33:17;22.50;30.00
30534;DHT22;17318;52.390;9.754;2023-04-07T11:35:54;21.90;30.60
30534;DHT22;17318;52.390;9.754;2023-04-07T11:38:22;21.40;31.00
30534;DHT22;17318;52.390;9.754;2023-04-07T11:40:47;20.80;31.10
30534;DHT22;17318;52.390;9.754;2023-04-07T11:43:25;20.50;31.60
30534;DHT22;17318;52.390;9.754;2023-04-07T11:48:37;20.20;32.70
30534;DHT22;17318;52.390;9.754;2023-04-07T11:51:03;20.30;32.90
30534;DHT22;17318;52.390;9.754;2023-04-07T11:53:32;20.10;33.10
30534;DHT22;17318;52.390;9.754;2023-04-07T11:56:05;19.80;33.40
30534;DHT22;17318;52.390;9.754;2023-04-07T11:58:34;19.40;33.50
30534;DHT22;17318;52.390;9.754;2023-04-07T12:01:02;19.10;34.60
30534;DHT22;17318;52.390;9.754;2023-04-07T12:03:34;18.90;34.60
30534;DHT22;17318;52.390;9.754;2023-04-07T12:06:01;18.90;34.90
30534;DHT22;17318;52.390;9.754;2023-04-07T12:08:40;18.90;34.90
30534;DHT22;17318;52.390;9.754;2023-04-07T12:11:06;18.90;35.30
30534;DHT22;17318;52.390;9.754;2023-04-07T12:13:34;18.50;35.60
30534;DHT22;17318;52.390;9.754;2023-04-07T12:16:00;18.60;35.60
30534;DHT22;17318;52.390;9.754;2023-04-07T12:18:26;18.60;35.60
30534;DHT22;17318;52.390;9.754;2023-04-07T12:20:52;18.40;35.50
30534;DHT22;17318;52.390;9.754;2023-04-07T12:23:18;18.30;35.60
30534;DHT22;17318;52.390;9.754;2023-04-07T12:25:44;18.20;36.40
30534;DHT22;17318;52.390;9.754;2023-04-07T12:28:10;18.30;36.40
30534;DHT22;17318;52.390;9.754;2023-04-07T12:30:35;18.30;36.20
30534;DHT22;17318;52.390;9.754;2023-04-07T12:33:01;18.30;36.00
30534;DHT22;17318;52.390;9.754;2023-04-07T12:35:28;18.30;36.50
30534;DHT22;17318;52.390;9.754;2023-04-07T12:37:55;18.30;36.40
30534;DHT22;17318;52.390;9.754;2023-04-07T12:40:22;18.20;36.20
30534;DHT22;17318;52.390;9.754;2023-04-07T12:42:47;18.10;36.20
30534;DHT22;17318;52.390;9.754;2023-04-07T12:45:13;18.10;36.20
30534;DHT22;17318;52.390;9.754;2023-04-07T12:47:38;18.10;36.20
30534;DHT22;17318;52.390;9.754;2023-04-07T12:50:05;18.10;36.20
30534;DHT22;17318;52.390;9.754;2023-04-07T12:52:34;18.10;36.50
30534;DHT22;17318;52.390;9.754;2023-04-07T12:55:00;18.10;36.50
30534;DHT22;17318;52.390;9.754;2023-04-07T12:57:26;18.00;36.50
30534;DHT22;17318;52.390;9.754;2023-04-07T12:59:52;18.00;36.30
30534;DHT22;17318;52.390;9.754;2023-04-07T13:02:19;18.00;36.00
30534;DHT22;17318;52.390;9.754;2023-04-07T13:04:45;18.00;36.00
30534;DHT22;17318;52.390;9.754;2023-04-07T13:07:14;18.00;36.60
30534;DHT22;17318;52.390;9.754;2023-04-07T13:09:41;18.00;36.20
30534;DHT22;17318;52.390;9.754;2023-04-07T13:12:10;17.70;35.80
30534;DHT22;17318;52.390;9.754;2023-04-07T13:14:37;17.60;35.90
30534;DHT22;17318;52.390;9.754;2023-04-07T13:17:03;17.50;36.20
30534;DHT22;17318;52.390;9.754;2023-04-07T13:19:29;17.40;36.80
30534;DHT22;17318;52.390;9.754;2023-04-07T13:21:55;17.40;36.00
30534;DHT22;17318;52.390;9.754;2023-04-07T13:24:21;17.50;36.50
30534;DHT22;17318;52.390;9.754;2023-04-07T13:26:47;17.50;36.50
30534;DHT22;17318;52.390;9.754;2023-04-07T13:29:13;17.60;36.80
30534;DHT22;17318;52.390;9.754;2023-04-07T13:31:39;17.60;36.80
30534;DHT22;17318;52.390;9.754;2023-04-07T13:34:04;17.50;37.00
30534;DHT22;17318;52.390;9.754;2023-04-07T13:36:30;17.60;37.00
30534;DHT22;17318;52.390;9.754;2023-04-07T13:38:56;17.50;37.50
30534;DHT22;17318;52.390;9.754;2023-04-07T13:41:22;17.30;37.40
30534;DHT22;17318;52.390;9.754;2023-04-07T13:43:48;17.30;37.40
30534;DHT22;17318;52.390;9.754;2023-04-07T13:46:13;17.30;37.20
30534;DHT22;17318;52.390;9.754;2023-04-07T13:48:45;17.40;37.50
30534;DHT22;17318;52.390;9.754;2023-04-07T13:51:11;17.40;37.40
30534;DHT22;17318;52.390;9.754;2023-04-07T13:53:37;17.40;37.60
30534;DHT22;17318;52.390;9.754;2023-04-07T13:56:04;17.30;37.50
30534;DHT22;17318;52.390;9.754;2023-04-07T13:58:35;17.20;37.70
30534;DHT22;17318;52.390;9.754;2023-04-07T14:01:02;17.10;37.70
30534;DHT22;17318;52.390;9.754;2023-04-07T14:03:28;17.00;38.20
30534;DHT22;17318;52.390;9.754;2023-04-07T14:05:53;17.00;38.10
30534;DHT22;17318;52.390;9.754;2023-04-07T14:08:20;17.00;38.20
30534;DHT22;17318;52.390;9.754;2023-04-07T14:10:48;17.00;38.10
30534;DHT22;17318;52.390;9.754;2023-04-07T14:13:13;17.00;38.30
30534;DHT22;17318;52.390;9.754;2023-04-07T14:15:39;16.80;38.40
30534;DHT22;17318;52.390;9.754;2023-04-07T14:18:05;16.70;37.90
30534;DHT22;17318;52.390;9.754;2023-04-07T14:20:31;16.70;37.90
30534;DHT22;17318;52.390;9.754;2023-04-07T14:22:57;16.60;37.90
30534;DHT22;17318;52.390;9.754;2023-04-07T14:25:23;16.60;38.40
30534;DHT22;17318;52.390;9.754;2023-04-07T14:27:49;16.50;38.30
30534;DHT22;17318;52.390;9.754;2023-04-07T14:30:15;16.50;38.50
30534;DHT22;17318;52.390;9.754;2023-04-07T14:32:41;16.50;38.40
30534;DHT22;17318;52.390;9.754;2023-04-07T14:35:07;16.50;38.40
30534;DHT22;17318;52.390;9.754;2023-04-07T14:37:32;16.50;39.00
30534;DHT22;17318;52.390;9.754;2023-04-07T14:40:00;16.60;38.50
30534;DHT22;17318;52.390;9.754;2023-04-07T14:42:26;16.50;38.20
30534;DHT22;17318;52.390;9.754;2023-04-07T14:44:54;16.50;37.50
30534;DHT22;17318;52.390;9.754;2023-04-07T14:47:20;16.40;37.60
30534;DHT22;17318;52.390;9.754;2023-04-07T14:49:46;16.30;37.50
30534;DHT22;17318;52.390;9.754;2023-04-07T14:52:11;16.20;37.70
30534;DHT22;17318;52.390;9.754;2023-04-07T14:54:40;16.20;38.10
30534;DHT22;17318;52.390;9.754;2023-04-07T14:57:06;16.20;38.30
30534;DHT22;17318;52.390;9.754;2023-04-07T14:59:32;16.20;38.10
30534;DHT22;17318;52.390;9.754;2023-04-07T15:01:58;16.30;37.90
30534;DHT22;17318;52.390;9.754;2023-04-07T15:04:24;16.20;37.30
30534;DHT22;17318;52.390;9.754;2023-04-07T15:06:49;16.20;37.60
30534;DHT22;17318;52.390;9.754;2023-04-07T15:09:15;16.20;37.70
30534;DHT22;17318;52.390;9.754;2023-04-07T15:11:41;16.10;37.50
30534;DHT22;17318;52.390;9.754;2023-04-07T15:14:06;16.10;37.80
30534;DHT22;17318;52.390;9.754;2023-04-07T15:16:32;16.00;38.10
30534;DHT22;17318;52.390;9.754;2023-04-07T15:18:58;16.00;37.90
30534;DHT22;17318;52.390;9.754;2023-04-07T15:21:24;15.90;38.00
30534;DHT22;17318;52.390;9.754;2023-04-07T15:23:51;15.90;37.90
30534;DHT22;17318;52.390;9.754;2023-04-07T15:26:17;15.90;37.70
30534;DHT22;17318;52.390;9.754;2023-04-07T15:28:42;15.80;37.70
30534;DHT22;17318;52.390;9.754;2023-04-07T15:31:08;15.90;37.70
30534;DHT22;17318;52.390;9.754;2023-04-07T15:33:35;15.90;37.50
30534;DHT22;17318;52.390;9.754;2023-04-07T15:36:01;15.90;37.30
30534;DHT22;17318;52.390;9.754;2023-04-07T15:38:28;15.90;37.50
30534;DHT22;17318;52.390;9.754;2023-04-07T15:40:53;15.90;37.50
30534;DHT22;17318;52.390;9.754;2023-04-07T15:43:19;15.90;37.30
30534;DHT22;17318;52.390;9.754;2023-04-07T15:45:45;15.90;37.20
30534;DHT22;17318;52.390;9.754;2023-04-07T15:48:12;15.80;36.80
30534;DHT22;17318;52.390;9.754;2023-04-07T15:50:38;15.90;36.90
30534;DHT22;17318;52.390;9.754;2023-04-07T15:53:04;15.80;36.60
30534;DHT22;17318;52.390;9.754;2023-04-07T15:55:34;15.80;36.50
30534;DHT22;17318;52.390;9.754;2023-04-07T15:58:00;15.70;36.40
30534;DHT22;17318;52.390;9.754;2023-04-07T16:00:27;15.70;36.50
30534;DHT22;17318;52.390;9.754;2023-04-07T16:02:54;15.60;36.20
30534;DHT22;17318;52.390;9.754;2023-04-07T16:05:19;15.60;36.30